Time;durP1;ratioP1;P1;durP2;ratioP2;P2;SDS_P1;SDS_P2;PMS_P1;PMS_P2;Temp;Humidity;BMP_temperature;BMP_pressure;BME280_temperature;BME280_humidity;BME280_pressure;Samples;Min_cycle;Max_cycle;Signal;HPM_P1;HPM_P2
2023/05/19 00:02:07;;;;;;;;;;;;;;;26.89;41.39;94432.78;5040531;28;7174;-61
2023/05/19 00:04:35;;;;;;;;;;;;;;;26.89;41.10;94430.03;5042027;28;7127;-61
2023/05/19 00:07:10;;;;;;;;;;;;;;;26.90;40.95;94428.00;5042240;28;7053;-61
2023/05/19 00:09:38;;;;;;;;;;;;;;;26.87;41.01;94426.28;5025873;28;8994;-61
2023/05/19 00:12:14;;;;;;;;;;;;;;;26.87;41.01;94424.28;5031688;28;9454;-61
2023/05/19 00:15:09;;;;;;;;;;;;;;;26.89;41.17;94420.97;5027398;28;9238;-61
2023/05/19 00:25:05;;;;;;;;;;;;;;;26.86;41.39;94417.25;4938498;28;9779;-61
2023/05/19 00:27:32;;;;;;;;;;;;;;;26.86;41.18;94414.47;4937346;29;7317;-61
2023/05/19 00:30:08;;;;;;;;;;;;;;;26.85;41.18;94415.00;4929518;29;7535;-62
2023/05/19 00:32:34;;;;;;;;;;;;;;;26.84;40.92;94413.50;4944896;28;8811;-61
2023/05/19 00:35:00;;;;;;;;;;;;;;;26.81;40.83;94403.53;4943911;28;7259;-62
2023/05/19 00:37:41;;;;;;;;;;;;;;;26.84;41.60;94402.47;4931758;29;8964;-61
2023/05/19 00:40:15;;;;;;;;;;;;;;;26.81;41.20;94400.75;4936058;29;8454;-61
2023/05/19 00:42:59;;;;;;;;;;;;;;;26.79;41.50;94395.78;4951227;28;7229;-61
2023/05/19 00:45:25;;;;;;;;;;;;;;;26.81;41.19;94400.75;4949299;29;9054;-62
2023/05/19 00:47:57;;;;;;;;;;;;;;;26.82;41.11;94402.25;4946541;29;9294;-61
2023/05/19 00:50:23;;;;;;;;;;;;;;;26.82;41.14;94400.22;4947458;28;6866;-61
2023/05/19 00:52:50;;;;;;;;;;;;;;;26.81;41.21;94398.00;4934552;28;8999;-62
2023/05/19 00:55:16;;;;;;;;;;;;;;;26.80;41.37;94388.22;4926227;29;7176;-62
2023/05/19 00:57:47;;;;;;;;;;;;;;;26.80;41.14;94390.97;4982831;28;8996;-61
2023/05/19 01:00:23;;;;;;;;;;;;;;;26.79;41.19;94397.78;5027293;28;7028;-62
2023/05/19 01:03:10;;;;;;;;;;;;;;;26.79;41.68;94395.00;5016709;28;7294;-62
2023/05/19 01:06:00;;;;;;;;;;;;;;;26.78;41.17;94394.25;5024348;28;9119;-61
2023/05/19 01:08:57;;;;;;;;;;;;;;;26.80;40.90;94393.72;5027273;28;7422;-61
2023/05/19 01:11:34;;;;;;;;;;;;;;;26.78;41.25;94390.75;4978659;28;9307;-61
2023/05/19 01:14:00;;;;;;;;;;;;;;;26.78;41.24;94383.22;4983168;28;9024;-61
2023/05/19 01:16:42;;;;;;;;;;;;;;;26.77;40.93;94386.50;4995612;28;8997;-62
2023/05/19 01:19:27;;;;;;;;;;;;;;;26.75;41.17;94386.28;4991968;28;7112;-61
2023/05/19 01:25:45;;;;;;;;;;;;;;;26.76;41.38;94391.28;5010340;28;7198;-61
2023/05/19 01:29:01;;;;;;;;;;;;;;;26.76;40.98;94388.50;4986155;28;7241;-61
2023/05/19 01:31:43;;;;;;;;;;;;;;;26.75;41.06;94389.03;5003377;28;9255;-61
2023/05/19 01:34:13;;;;;;;;;;;;;;;26.72;41.15;94390.78;4988861;28;7749;-61
2023/05/19 01:36:54;;;;;;;;;;;;;;;26.72;41.31;94395.56;5010104;28;7148;-61
2023/05/19 01:39:55;;;;;;;;;;;;;;;26.72;41.27;94395.56;4987718;28;9084;-62
2023/05/19 01:42:38;;;;;;;;;;;;;;;26.71;41.63;94392.03;4996445;28;7278;-61
2023/05/19 01:45:11;;;;;;;;;;;;;;;26.69;41.29;94397.34;5007905;28;9041;-61
2023/05/19 01:47:56;;;;;;;;;;;;;;;26.69;41.71;94391.81;5025118;28;7937;-61
2023/05/19 01:51:07;;;;;;;;;;;;;;;26.68;41.47;94395.09;5039587;28;7037;-62
2023/05/19 01:53:46;;;;;;;;;;;;;;;26.67;41.12;94396.34;4971388;28;9337;-61
2023/05/19 01:56:40;;;;;;;;;;;;;;;26.69;41.22;94394.56;4970389;28;8713;-61
2023/05/19 01:59:37;;;;;;;;;;;;;;;26.66;41.40;94392.13;4985064;28;9420;-62
2023/05/19 02:02:35;;;;;;;;;;;;;;;26.67;41.93;94393.59;4914818;29;9083;-61
2023/05/19 02:05:28;;;;;;;;;;;;;;;26.63;41.92;94385.63;4901446;29;9090;-61
2023/05/19 02:08:22;;;;;;;;;;;;;;;26.63;41.50;94377.34;4916028;29;9841;-61
2023/05/19 02:11:33;;;;;;;;;;;;;;;26.63;41.53;94377.34;4879950;29;9458;-61
2023/05/19 02:14:36;;;;;;;;;;;;;;;26.64;41.78;94378.09;4876051;29;9080;-61
2023/05/19 02:17:22;;;;;;;;;;;;;;;26.61;41.70;94374.34;4801549;29;7757;-61
2023/05/19 02:20:07;;;;;;;;;;;;;;;26.62;41.97;94369.59;4819500;29;8610;-61
2023/05/19 02:22:35;;;;;;;;;;;;;;;26.61;41.53;94376.38;4789008;29;7621;-61
2023/05/19 02:25:18;;;;;;;;;;;;;;;26.57;41.26;94375.91;4789107;29;7756;-61
2023/05/19 02:27:54;;;;;;;;;;;;;;;26.58;41.82;94377.38;4789310;29;8782;-61
2023/05/19 02:30:35;;;;;;;;;;;;;;;26.58;41.29;94378.13;4793206;29;7707;-61
2023/05/19 02:33:05;;;;;;;;;;;;;;;26.57;41.45;94379.41;4786381;29;7646;-61
2023/05/19 02:35:33;;;;;;;;;;;;;;;26.54;41.93;94371.41;4785700;29;9052;-61
2023/05/19 02:38:01;;;;;;;;;;;;;;;26.56;42.15;94377.16;4799623;29;7499;-62
2023/05/19 02:40:35;;;;;;;;;;;;;;;26.56;41.62;94366.13;4850608;29;7634;-62
2023/05/19 02:43:16;;;;;;;;;;;;;;;26.54;41.42;94368.66;4839030;29;7205;-61
2023/05/19 02:45:56;;;;;;;;;;;;;;;26.53;41.96;94362.41;4850340;29;9601;-61
2023/05/19 02:48:39;;;;;;;;;;;;;;;26.52;41.62;94360.91;4875890;29;7045;-61
2023/05/19 02:51:06;;;;;;;;;;;;;;;26.52;41.94;94357.41;4928243;28;7445;-64
2023/05/19 02:53:43;;;;;;;;;;;;;;;26.53;41.86;94356.16;4982568;28;7179;-64
2023/05/19 02:56:09;;;;;;;;;;;;;;;26.47;41.68;94356.19;5040687;28;8787;-64
2023/05/19 02:58:35;;;;;;;;;;;;;;;26.53;41.53;94358.91;5037845;28;9051;-64
2023/05/19 03:01:01;;;;;;;;;;;;;;;26.52;42.01;94360.91;5037704;28;8846;-64
2023/05/19 03:03:30;;;;;;;;;;;;;;;26.48;41.34;94354.94;5038573;28;9153;-64
2023/05/19 03:05:57;;;;;;;;;;;;;;;26.48;42.10;94354.19;5024741;28;9735;-64
2023/05/19 03:08:23;;;;;;;;;;;;;;;26.48;41.78;94348.66;5040535;28;7245;-64
2023/05/19 03:11:01;;;;;;;;;;;;;;;26.46;41.72;94351.19;5024910;28;7248;-64
2023/05/19 03:13:33;;;;;;;;;;;;;;;26.45;41.49;94352.44;5041669;28;7200;-64
2023/05/19 03:16:07;;;;;;;;;;;;;;;26.44;41.85;94348.97;5025561;28;7150;-64
2023/05/19 03:18:33;;;;;;;;;;;;;;;26.46;42.16;94351.19;5039316;28;7254;-64
2023/05/19 03:21:06;;;;;;;;;;;;;;;26.46;41.75;94345.69;5042718;28;8737;-64
2023/05/19 03:23:54;;;;;;;;;;;;;;;26.46;41.87;94356.72;5027520;28;7141;-64
2023/05/19 03:26:22;;;;;;;;;;;;;;;26.45;41.75;94352.44;5032422;28;8789;-64
2023/05/19 03:28:50;;;;;;;;;;;;;;;26.46;42.12;94353.97;5044265;28;9606;-64
2023/05/19 03:31:25;;;;;;;;;;;;;;;26.45;42.29;94349.69;5029179;28;7232;-64
2023/05/19 03:34:01;;;;;;;;;;;;;;;26.44;42.34;94353.72;5045251;28;7492;-64
2023/05/19 03:36:30;;;;;;;;;;;;;;;26.45;42.04;94352.44;5009078;28;7173;-64
2023/05/19 03:39:00;;;;;;;;;;;;;;;26.44;41.67;94356.47;5025010;28;7280;-64
2023/05/19 03:41:28;;;;;;;;;;;;;;;26.43;41.74;94352.97;5040744;28;7505;-64
2023/05/19 03:44:12;;;;;;;;;;;;;;;26.37;41.89;94362.56;5023334;28;7415;-64
2023/05/19 03:46:39;;;;;;;;;;;;;;;26.38;41.91;94367.56;5027334;28;7413;-64
2023/05/19 03:49:25;;;;;;;;;;;;;;;26.40;41.67;94364.31;5021024;28;9138;-64
2023/05/19 03:51:53;;;;;;;;;;;;;;;26.38;42.05;94366.84;5024358;28;9644;-64
2023/05/19 03:54:26;;;;;;;;;;;;;;;26.39;41.56;94373.81;5038588;28;7319;-64
2023/05/19 03:57:03;;;;;;;;;;;;;;;26.38;42.25;94372.34;5029375;28;9041;-64
2023/05/19 03:59:52;;;;;;;;;;;;;;;26.36;41.69;94370.09;5042212;28;7250;-64
2023/05/19 04:03:07;;;;;;;;;;;;;;;26.36;41.80;94372.13;5040641;28;7240;-64
2023/05/19 04:05:47;;;;;;;;;;;;;;;26.31;42.22;94364.63;4966037;28;9458;-64
2023/05/19 04:08:14;;;;;;;;;;;;;;;26.34;42.15;94369.13;4963584;28;7347;-63
2023/05/19 04:10:40;;;;;;;;;;;;;;;26.32;41.84;94369.63;4948268;28;7033;-64
2023/05/19 04:13:08;;;;;;;;;;;;;;;26.33;41.67;94371.13;4929798;28;7265;-64
2023/05/19 04:15:34;;;;;;;;;;;;;;;26.32;42.13;94375.16;4944193;28;7265;-64
2023/05/19 04:18:02;;;;;;;;;;;;;;;26.30;42.08;94376.91;4940968;28;9435;-64
2023/05/19 04:20:33;;;;;;;;;;;;;;;26.30;42.30;94377.66;4947751;28;9091;-64
2023/05/19 04:23:09;;;;;;;;;;;;;;;26.28;42.33;94382.19;4936828;28;7220;-64
2023/05/19 04:25:47;;;;;;;;;;;;;;;26.31;42.44;94378.44;4954988;28;7403;-64
2023/05/19 04:28:16;;;;;;;;;;;;;;;26.28;41.74;94387.72;4953659;28;7219;-64
2023/05/19 04:30:50;;;;;;;;;;;;;;;26.30;41.51;94376.91;4944642;28;9540;-64
2023/05/19 04:33:16;;;;;;;;;;;;;;;26.32;42.49;94382.69;4958282;28;7311;-64
2023/05/19 04:35:42;;;;;;;;;;;;;;;26.30;42.26;94387.94;4943557;28;7324;-63
2023/05/19 04:38:11;;;;;;;;;;;;;;;26.29;42.22;94389.22;4952262;28;7063;-64
2023/05/19 04:40:41;;;;;;;;;;;;;;;26.23;41.51;94388.53;4951222;28;9151;-63
2023/05/19 04:43:08;;;;;;;;;;;;;;;26.29;41.95;94389.97;5017615;28;9075;-63
2023/05/19 04:45:36;;;;;;;;;;;;;;;26.30;42.59;94393.47;5040836;28;7283;-64
2023/05/19 04:48:02;;;;;;;;;;;;;;;26.30;42.36;94388.69;5019318;28;9078;-63
2023/05/19 04:50:32;;;;;;;;;;;;;;;26.27;42.49;94384.22;5025500;28;7041;-63
2023/05/19 04:53:13;;;;;;;;;;;;;;;26.29;42.42;94394.75;5024858;28;9310;-63
2023/05/19 04:55:41;;;;;;;;;;;;;;;26.27;41.70;94384.22;5044784;28;7094;-64
2023/05/19 04:58:07;;;;;;;;;;;;;;;26.29;42.13;94380.94;5040972;28;9003;-64
2023/05/19 05:00:34;;;;;;;;;;;;;;;26.32;42.70;94386.19;5027468;28;8706;-64
2023/05/19 05:03:09;;;;;;;;;;;;;;;26.34;42.08;94388.44;5040664;28;8542;-64
2023/05/19 05:05:37;;;;;;;;;;;;;;;26.34;41.89;94385.69;5032364;28;7409;-65
2023/05/19 05:08:04;;;;;;;;;;;;;;;26.29;42.37;94386.47;5049179;28;8723;-65
2023/05/19 05:10:31;;;;;;;;;;;;;;;26.27;42.28;94386.25;5044747;28;7264;-65
2023/05/19 05:12:57;;;;;;;;;;;;;;;26.27;42.27;94384.22;5029168;28;9353;-65
2023/05/19 05:15:28;;;;;;;;;;;;;;;26.26;42.03;94390.25;5034601;28;9228;-65
2023/05/19 05:17:55;;;;;;;;;;;;;;;26.26;42.00;94388.25;5033582;28;9077;-65
2023/05/19 05:20:21;;;;;;;;;;;;;;;26.28;42.10;94387.72;5033381;28;7336;-65
2023/05/19 05:22:50;;;;;;;;;;;;;;;26.29;42.32;94391.97;5051686;28;9202;-65
2023/05/19 05:25:17;;;;;;;;;;;;;;;26.33;42.01;94392.44;5047087;28;9453;-64
2023/05/19 05:27:43;;;;;;;;;;;;;;;26.35;42.74;94390.66;5032956;28;9636;-65
2023/05/19 05:30:11;;;;;;;;;;;;;;;26.36;42.69;94386.63;5045883;28;9379;-64
2023/05/19 05:32:39;;;;;;;;;;;;;;;26.38;42.46;94389.63;5030957;28;8962;-64
2023/05/19 05:35:06;;;;;;;;;;;;;;;26.41;41.90;94387.84;5043870;28;9415;-64
2023/05/19 05:37:36;;;;;;;;;;;;;;;26.45;42.16;94391.06;5043810;28;7293;-65
2023/05/19 05:40:03;;;;;;;;;;;;;;;26.46;42.16;94387.06;5024118;28;7464;-64
2023/05/19 05:42:31;;;;;;;;;;;;;;;26.48;41.71;94387.28;5028930;28;9276;-65
2023/05/19 05:44:57;;;;;;;;;;;;;;;26.48;41.81;94385.28;5046845;28;8838;-65
2023/05/19 05:47:23;;;;;;;;;;;;;;;26.51;42.10;94386.25;5043631;28;7688;-65
2023/05/19 05:49:51;;;;;;;;;;;;;;;26.52;42.33;94394.00;5043753;28;7246;-65
2023/05/19 05:52:23;;;;;;;;;;;;;;;26.53;42.31;94389.25;5036073;28;7267;-65
2023/05/19 05:54:49;;;;;;;;;;;;;;;26.53;42.22;94392.00;5034206;28;8429;-65
2023/05/19 05:57:21;;;;;;;;;;;;;;;26.56;42.05;94388.19;5028293;28;7117;-64
2023/05/19 05:59:54;;;;;;;;;;;;;;;26.59;42.30;94387.16;5034722;28;7188;-65
2023/05/19 06:02:21;;;;;;;;;;;;;;;26.58;41.91;94380.91;5024029;28;7322;-63
2023/05/19 06:04:47;;;;;;;;;;;;;;;26.60;41.88;94388.69;5044426;28;9170;-64
2023/05/19 06:07:15;;;;;;;;;;;;;;;26.62;41.91;94381.34;5043914;28;9129;-64
2023/05/19 06:09:46;;;;;;;;;;;;;;;26.64;42.27;94392.63;5035220;28;9032;-64
2023/05/19 06:12:12;;;;;;;;;;;;;;;26.66;41.94;94386.59;5029429;28;9013;-64
2023/05/19 06:15:09;;;;;;;;;;;;;;;26.68;41.97;94386.81;5044316;28;6983;-64
2023/05/19 06:17:43;;;;;;;;;;;;;;;26.69;41.56;94380.78;4983464;28;8476;-63
2023/05/19 06:20:18;;;;;;;;;;;;;;;26.74;41.88;94380.00;4971672;28;7298;-62
2023/05/19 06:23:10;;;;;;;;;;;;;;;26.78;42.55;94388.00;4972256;28;8262;-63
2023/05/19 06:25:47;;;;;;;;;;;;;;;26.80;41.93;94382.69;4988277;28;7212;-64
2023/05/19 06:28:33;;;;;;;;;;;;;;;26.86;41.63;94383.41;4983696;28;7017;-64
2023/05/19 06:31:12;;;;;;;;;;;;;;;26.89;41.48;94385.09;4986130;28;8807;-64
2023/05/19 06:33:46;;;;;;;;;;;;;;;26.92;41.43;94386.09;4969785;28;9319;-64
2023/05/19 06:36:13;;;;;;;;;;;;;;;26.95;41.41;94385.78;4979634;28;8982;-64
2023/05/19 06:38:47;;;;;;;;;;;;;;;26.96;41.78;94384.53;4969927;28;9076;-64
2023/05/19 06:41:17;;;;;;;;;;;;;;;27.02;41.44;94385.19;4982687;28;7262;-64
2023/05/19 06:43:57;;;;;;;;;;;;;;;27.04;41.57;94385.44;4977294;28;8697;-64
2023/05/19 06:46:33;;;;;;;;;;;;;;;27.06;40.98;94385.66;4965190;28;7652;-64
2023/05/19 06:49:18;;;;;;;;;;;;;;;27.09;40.84;94390.13;4987153;28;8570;-64
2023/05/19 06:51:53;;;;;;;;;;;;;;;27.10;40.83;94391.63;4974935;28;8223;-64
2023/05/19 06:54:24;;;;;;;;;;;;;;;27.11;40.54;94395.88;5017473;28;7273;-64
2023/05/19 06:57:11;;;;;;;;;;;;;;;27.12;41.02;94393.88;5041682;28;8993;-64
2023/05/19 06:59:51;;;;;;;;;;;;;;;27.12;41.07;94402.88;5034179;28;7371;-64
2023/05/19 07:02:27;;;;;;;;;;;;;;;27.16;40.95;94400.59;5048124;28;7457;-63
2023/05/19 07:05:02;;;;;;;;;;;;;;;27.16;40.99;94395.09;5044186;28;9412;-63
2023/05/19 07:07:30;;;;;;;;;;;;;;;27.16;41.04;94386.81;5027691;28;7669;-64
2023/05/19 07:09:59;;;;;;;;;;;;;;;27.18;41.13;94398.06;5030329;28;9436;-64
2023/05/19 07:12:35;;;;;;;;;;;;;;;27.19;41.26;94401.56;5044180;28;7257;-64
2023/05/19 07:15:29;;;;;;;;;;;;;;;27.18;41.05;94400.81;5043281;28;9103;-63
2023/05/19 07:18:06;;;;;;;;;;;;;;;27.15;41.09;94395.59;5004026;28;7306;-63
2023/05/19 07:20:43;;;;;;;;;;;;;;;27.17;40.82;94391.03;5003025;28;7499;-63
2023/05/19 07:23:10;;;;;;;;;;;;;;;27.18;40.92;94386.28;5000509;28;7288;-63
2023/05/19 07:25:37;;;;;;;;;;;;;;;27.16;41.07;94395.09;5004105;28;8918;-63
2023/05/19 07:28:12;;;;;;;;;;;;;;;27.17;40.79;94399.31;4990815;28;7294;-63
2023/05/19 07:30:48;;;;;;;;;;;;;;;27.15;40.86;94401.09;5007967;28;9235;-64
2023/05/19 07:33:40;;;;;;;;;;;;;;;27.12;40.83;94391.84;5005287;28;7056;-64
2023/05/19 07:36:08;;;;;;;;;;;;;;;27.11;40.93;94395.88;4986003;28;7290;-64
2023/05/19 07:38:39;;;;;;;;;;;;;;;27.09;41.04;94394.91;4983532;28;8926;-64
2023/05/19 07:41:08;;;;;;;;;;;;;;;27.08;41.32;94388.63;5005234;28;9499;-64
2023/05/19 07:43:34;;;;;;;;;;;;;;;27.08;41.58;94387.91;4992922;28;7031;-64
2023/05/19 07:46:17;;;;;;;;;;;;;;;27.05;41.63;94380.66;4986560;28;7288;-64
2023/05/19 07:48:45;;;;;;;;;;;;;;;27.05;41.31;94388.94;5002329;28;9125;-64
2023/05/19 07:51:21;;;;;;;;;;;;;;;27.03;41.76;94392.22;4994136;28;7244;-64
2023/05/19 07:54:07;;;;;;;;;;;;;;;27.01;41.94;94399.53;5004248;28;9073;-63
2023/05/19 07:56:35;;;;;;;;;;;;;;;27.00;41.80;94398.78;5012622;28;9055;-64
2023/05/19 07:59:06;;;;;;;;;;;;;;;26.99;41.47;94397.28;5040779;28;7018;-64
2023/05/19 08:01:32;;;;;;;;;;;;;;;27.00;41.58;94390.50;5023173;28;7038;-64
2023/05/19 08:04:08;;;;;;;;;;;;;;;26.98;41.73;94395.78;5048170;28;8705;-64
2023/05/19 08:06:44;;;;;;;;;;;;;;;26.94;42.16;94389.81;5041926;28;7123;-64
2023/05/19 08:09:10;;;;;;;;;;;;;;;26.97;41.72;94391.53;5028588;28;9153;-64
2023/05/19 08:12:07;;;;;;;;;;;;;;;26.96;41.88;94398.34;5042817;28;9124;-64
2023/05/19 08:14:51;;;;;;;;;;;;;;;26.96;41.91;94392.81;5023679;28;9542;-64
2023/05/19 08:17:17;;;;;;;;;;;;;;;26.97;42.07;94399.81;5044413;28;8711;-64
2023/05/19 08:19:52;;;;;;;;;;;;;;;26.98;41.79;94389.53;5036782;28;8705;-65
2023/05/19 08:22:22;;;;;;;;;;;;;;;26.97;42.03;94385.28;5042615;28;7554;-64
2023/05/19 08:24:53;;;;;;;;;;;;;;;26.97;41.74;94383.25;5020096;28;7309;-64
2023/05/19 08:27:21;;;;;;;;;;;;;;;26.96;41.84;94387.28;5046002;28;7834;-64
2023/05/19 08:29:56;;;;;;;;;;;;;;;26.96;42.13;94381.78;5043049;28;8725;-64
2023/05/19 08:32:23;;;;;;;;;;;;;;;26.96;41.91;94384.53;5022585;28;6986;-64
2023/05/19 08:34:49;;;;;;;;;;;;;;;26.96;42.07;94383.78;5028049;28;9038;-64
2023/05/19 08:37:20;;;;;;;;;;;;;;;26.92;42.18;94381.31;5039848;28;7074;-64
2023/05/19 08:39:48;;;;;;;;;;;;;;;26.94;41.97;94381.53;5037373;28;7338;-64
2023/05/19 08:42:22;;;;;;;;;;;;;;;26.96;42.38;94387.28;5040020;28;9059;-64
2023/05/19 08:44:53;;;;;;;;;;;;;;;26.94;41.87;94380.78;5027069;28;7328;-64
2023/05/19 08:47:33;;;;;;;;;;;;;;;26.92;42.30;94375.81;5032256;28;9295;-64
2023/05/19 08:50:35;;;;;;;;;;;;;;;26.92;42.15;94381.31;5034660;28;7272;-64
2023/05/19 08:53:30;;;;;;;;;;;;;;;26.89;41.88;94380.34;5045896;28;7042;-64
2023/05/19 08:56:20;;;;;;;;;;;;;;;26.88;42.35;94369.84;5034763;28;9094;-64
2023/05/19 08:58:51;;;;;;;;;;;;;;;26.92;42.32;94378.56;5043084;28;7238;-64
2023/05/19 09:01:19;;;;;;;;;;;;;;;26.90;41.99;94378.34;5026818;28;9421;-64
2023/05/19 09:04:02;;;;;;;;;;;;;;;26.91;42.65;94374.28;5027498;28;8020;-64
2023/05/19 09:06:43;;;;;;;;;;;;;;;26.88;42.20;94376.06;5025510;28;7470;-64
2023/05/19 09:09:27;;;;;;;;;;;;;;;26.89;42.22;94379.59;5025222;28;8057;-64
2023/05/19 09:11:53;;;;;;;;;;;;;;;26.88;42.11;94370.56;5018394;28;9049;-64
2023/05/19 09:14:21;;;;;;;;;;;;;;;26.89;42.66;94369.31;5039173;28;8179;-64
2023/05/19 09:16:51;;;;;;;;;;;;;;;26.89;42.89;94369.31;5042749;28;9250;-64
2023/05/19 09:19:17;;;;;;;;;;;;;;;26.92;42.38;94369.53;5023634;28;7250;-64
2023/05/19 09:21:44;;;;;;;;;;;;;;;26.87;42.40;94365.56;5038210;28;7289;-64
2023/05/19 09:24:10;;;;;;;;;;;;;;;26.89;42.64;94368.53;5023208;28;7781;-64
2023/05/19 09:26:46;;;;;;;;;;;;;;;26.88;42.48;94361.56;5042230;28;7289;-64
2023/05/19 09:29:43;;;;;;;;;;;;;;;26.88;42.12;94369.84;5023237;28;7331;-64
2023/05/19 09:32:30;;;;;;;;;;;;;;;26.90;42.27;94368.03;4965524;28;9396;-63
2023/05/19 09:35:21;;;;;;;;;;;;;;;26.88;42.70;94365.03;4973975;28;8938;-64
2023/05/19 09:38:03;;;;;;;;;;;;;;;26.87;42.05;94363.56;4976031;28;9012;-64
2023/05/19 09:40:33;;;;;;;;;;;;;;;26.85;42.62;94362.56;4992751;28;9060;-64
2023/05/19 09:43:04;;;;;;;;;;;;;;;26.87;42.56;94368.31;4992368;28;9166;-64
2023/05/19 09:45:33;;;;;;;;;;;;;;;26.86;42.64;94362.06;4980943;28;9172;-64
2023/05/19 09:48:08;;;;;;;;;;;;;;;26.85;42.98;94368.09;4976815;28;7025;-64
2023/05/19 09:51:06;;;;;;;;;;;;;;;26.84;42.17;94367.34;4975874;28;7251;-64
2023/05/19 09:53:45;;;;;;;;;;;;;;;26.84;42.78;94366.59;4902942;29;7415;-64
2023/05/19 09:56:13;;;;;;;;;;;;;;;26.84;42.68;94369.34;4918241;29;9092;-64
2023/05/19 09:58:41;;;;;;;;;;;;;;;26.82;42.16;94367.13;4897590;29;9711;-64
2023/05/19 10:01:10;;;;;;;;;;;;;;;26.83;42.36;94368.63;4901772;29;7117;-64
2023/05/19 10:03:39;;;;;;;;;;;;;;;26.82;42.44;94372.63;4895540;29;7665;-64
2023/05/19 10:06:18;;;;;;;;;;;;;;;26.80;42.80;94369.66;4913840;29;7658;-64
2023/05/19 10:08:46;;;;;;;;;;;;;;;26.81;43.08;94375.94;4919100;29;7265;-64
2023/05/19 10:11:23;;;;;;;;;;;;;;;26.79;42.72;94370.19;4932038;28;7044;-64
2023/05/19 10:14:08;;;;;;;;;;;;;;;26.82;42.63;94371.88;4928588;29;7532;-64
2023/05/19 10:16:39;;;;;;;;;;;;;;;26.82;42.24;94371.88;4909292;29;9119;-64
2023/05/19 10:19:07;;;;;;;;;;;;;;;26.78;43.01;94366.66;4910935;29;9006;-64
2023/05/19 10:21:33;;;;;;;;;;;;;;;26.79;42.71;94361.91;4929034;29;9045;-64
2023/05/19 10:24:02;;;;;;;;;;;;;;;26.81;42.78;94362.13;4911531;29;7098;-64
2023/05/19 10:26:30;;;;;;;;;;;;;;;26.79;43.03;94353.63;4923999;28;6848;-65
2023/05/19 10:29:01;;;;;;;;;;;;;;;26.78;43.26;94360.41;4918705;28;7064;-65
2023/05/19 10:31:32;;;;;;;;;;;;;;;26.78;43.48;94363.91;5027934;28;7299;-65
2023/05/19 10:34:20;;;;;;;;;;;;;;;26.76;43.34;94360.16;5023900;28;9290;-65
2023/05/19 10:36:59;;;;;;;;;;;;;;;26.75;43.83;94353.19;5041480;28;7308;-65
2023/05/19 10:39:42;;;;;;;;;;;;;;;26.77;43.28;94358.91;5022664;28;7039;-65
2023/05/19 10:42:26;;;;;;;;;;;;;;;26.76;43.81;94357.41;5033165;28;7047;-65
2023/05/19 10:45:18;;;;;;;;;;;;;;;26.77;43.51;94365.16;5026876;28;9064;-65
2023/05/19 10:47:50;;;;;;;;;;;;;;;26.77;43.67;94361.69;5041180;28;7868;-65
2023/05/19 10:50:25;;;;;;;;;;;;;;;26.74;43.54;94360.69;5045449;28;9359;-65
2023/05/19 10:52:59;;;;;;;;;;;;;;;26.77;43.41;94359.63;5028934;28;7039;-65
2023/05/19 10:56:05;;;;;;;;;;;;;;;26.76;43.60;94358.16;5050533;28;7320;-63
2023/05/19 10:58:43;;;;;;;;;;;;;;;26.75;43.15;94364.94;5027582;28;7160;-65
2023/05/19 11:01:31;;;;;;;;;;;;;;;26.74;43.14;94368.22;5042383;28;9057;-65
2023/05/19 11:04:13;;;;;;;;;;;;;;;26.76;42.86;94362.94;5032386;28;7052;-65
2023/05/19 11:06:50;;;;;;;;;;;;;;;26.75;42.87;94366.97;5042491;28;7263;-65
2023/05/19 11:09:22;;;;;;;;;;;;;;;26.76;42.63;94363.69;5044501;28;8972;-65
2023/05/19 11:11:50;;;;;;;;;;;;;;;26.75;42.51;94362.19;5049151;28;7053;-65
2023/05/19 11:14:24;;;;;;;;;;;;;;;26.75;43.34;94366.97;5031263;28;6862;-64
2023/05/19 11:17:14;;;;;;;;;;;;;;;26.75;43.03;94359.41;5046126;28;7642;-65
2023/05/19 11:20:18;;;;;;;;;;;;;;;26.75;42.67;94350.41;5032058;28;9415;-65
2023/05/19 11:23:05;;;;;;;;;;;;;;;26.74;42.83;94357.94;5030109;28;9811;-65
2023/05/19 11:25:40;;;;;;;;;;;;;;;26.74;42.74;94359.94;5046715;28;7369;-64
2023/05/19 11:28:20;;;;;;;;;;;;;;;26.73;42.71;94350.91;5028137;28;7344;-64
2023/05/19 11:30:56;;;;;;;;;;;;;;;26.75;42.88;94356.66;5046477;28;7442;-64
2023/05/19 11:33:55;;;;;;;;;;;;;;;26.75;42.52;94356.66;5040491;28;7290;-64
2023/05/19 11:36:22;;;;;;;;;;;;;;;26.73;42.56;94352.94;5032699;28;9546;-64
2023/05/19 11:39:00;;;;;;;;;;;;;;;26.73;42.84;94348.16;5043956;28;7481;-64
2023/05/19 11:41:54;;;;;;;;;;;;;;;26.72;42.84;94354.16;5033797;28;7267;-64
2023/05/19 11:44:28;;;;;;;;;;;;;;;26.69;42.83;94347.69;5029445;28;7002;-64
2023/05/19 11:47:00;;;;;;;;;;;;;;;26.69;42.95;94352.44;5035227;28;8996;-64
2023/05/19 11:49:38;;;;;;;;;;;;;;;26.71;42.74;94338.88;5026145;28;9445;-64
2023/05/19 11:52:06;;;;;;;;;;;;;;;26.69;42.54;94347.69;5029479;28;7116;-64
2023/05/19 11:54:35;;;;;;;;;;;;;;;26.69;42.96;94335.88;5004980;28;7078;-64
2023/05/19 11:57:09;;;;;;;;;;;;;;;26.71;42.57;94344.38;5045054;28;7028;-64
2023/05/19 11:59:44;;;;;;;;;;;;;;;26.69;42.80;94344.16;5031398;28;9105;-65
2023/05/19 12:02:20;;;;;;;;;;;;;;;26.71;42.66;94349.91;5047496;28;9532;-64
2023/05/19 12:04:48;;;;;;;;;;;;;;;26.71;42.55;94352.66;5046192;28;9383;-64
2023/05/19 12:07:27;;;;;;;;;;;;;;;26.70;42.90;94349.19;5045895;28;9190;-65
2023/05/19 12:10:11;;;;;;;;;;;;;;;26.70;42.36;94353.94;5012779;28;9263;-64
2023/05/19 12:12:43;;;;;;;;;;;;;;;26.70;42.68;94348.44;5045670;28;9082;-64
2023/05/19 12:15:11;;;;;;;;;;;;;;;26.70;42.30;94348.44;5048348;28;9038;-64
2023/05/19 12:18:03;;;;;;;;;;;;;;;26.70;42.31;94349.19;5051310;28;8636;-64
2023/05/19 12:20:36;;;;;;;;;;;;;;;26.68;41.93;94346.19;5033717;28;9035;-64
2023/05/19 12:23:40;;;;;;;;;;;;;;;26.68;41.97;94342.69;5025503;28;9493;-64
2023/05/19 12:26:21;;;;;;;;;;;;;;;26.68;42.30;94342.69;5011147;28;9101;-64
2023/05/19 12:29:06;;;;;;;;;;;;;;;26.67;42.18;94341.94;5010836;28;7239;-64
2023/05/19 12:31:36;;;;;;;;;;;;;;;26.69;42.33;94344.16;5010747;28;9141;-64
2023/05/19 12:34:03;;;;;;;;;;;;;;;26.69;42.70;94341.41;5011392;28;9322;-64
2023/05/19 12:36:31;;;;;;;;;;;;;;;26.69;42.84;94346.91;4998621;28;7617;-64
2023/05/19 12:39:13;;;;;;;;;;;;;;;26.69;42.46;94349.69;5016359;28;7028;-64
2023/05/19 12:42:11;;;;;;;;;;;;;;;26.68;42.49;94346.19;5014163;28;9050;-64
2023/05/19 12:44:51;;;;;;;;;;;;;;;26.69;42.22;94333.13;4918236;29;7048;-64
2023/05/19 12:47:53;;;;;;;;;;;;;;;26.67;42.65;94338.41;4928848;29;9092;-64
2023/05/19 12:50:29;;;;;;;;;;;;;;;26.66;42.74;94342.47;4926478;29;9479;-64
2023/05/19 12:53:16;;;;;;;;;;;;;;;26.69;42.48;94335.88;4918431;29;9154;-65
2023/05/19 12:56:09;;;;;;;;;;;;;;;26.70;42.50;94342.91;4933672;29;7456;-65
2023/05/19 12:59:05;;;;;;;;;;;;;;;26.69;42.47;94335.88;4933127;29;9164;-64
2023/05/19 13:01:56;;;;;;;;;;;;;;;26.68;42.40;94342.69;4871832;29;8761;-65
2023/05/19 13:04:33;;;;;;;;;;;;;;;26.68;42.75;94328.88;4871451;29;9050;-65
2023/05/19 13:07:38;;;;;;;;;;;;;;;26.66;42.24;94331.44;4859091;29;6864;-65
2023/05/19 13:10:13;;;;;;;;;;;;;;;26.65;42.51;94332.69;4871918;29;9605;-65
2023/05/19 13:13:02;;;;;;;;;;;;;;;26.66;42.53;94331.44;4879758;29;7098;-65
2023/05/19 13:16:00;;;;;;;;;;;;;;;26.64;42.63;94333.97;4878410;29;7235;-65
2023/05/19 13:18:37;;;;;;;;;;;;;;;26.65;42.72;94329.91;4824553;29;9062;-63
2023/05/19 13:21:13;;;;;;;;;;;;;;;26.63;42.55;94332.44;4852379;29;8358;-63
2023/05/19 13:24:26;;;;;;;;;;;;;;;26.64;42.51;94340.19;4880498;29;7023;-63
2023/05/19 13:27:18;;;;;;;;;;;;;;;26.64;42.63;94331.91;4879820;29;9376;-63
2023/05/19 13:29:44;;;;;;;;;;;;;;;26.60;43.13;94328.72;4879989;29;7340;-63
2023/05/19 13:32:26;;;;;;;;;;;;;;;26.64;42.82;94331.19;4863729;29;7108;-63
2023/05/19 13:35:06;;;;;;;;;;;;;;;26.65;42.66;94325.16;4879555;29;8408;-63
2023/05/19 13:37:35;;;;;;;;;;;;;;;26.64;42.55;94328.44;4885054;29;9055;-64
2023/05/19 13:40:02;;;;;;;;;;;;;;;26.64;42.43;94333.97;4936557;29;7242;-63
2023/05/19 13:42:34;;;;;;;;;;;;;;;26.64;42.39;94333.97;4937188;29;9092;-64
2023/05/19 13:45:14;;;;;;;;;;;;;;;26.63;42.72;94324.94;4933219;29;7337;-63
2023/05/19 13:48:09;;;;;;;;;;;;;;;26.63;43.10;94324.94;4936187;29;7117;-63
2023/05/19 13:51:15;;;;;;;;;;;;;;;26.66;42.14;94323.16;4936193;28;9039;-64
2023/05/19 13:53:51;;;;;;;;;;;;;;;26.66;43.28;94328.66;4937849;28;7895;-64
2023/05/19 13:56:33;;;;;;;;;;;;;;;26.61;42.90;94329.47;5008550;28;9036;-64
2023/05/19 13:59:20;;;;;;;;;;;;;;;26.62;42.67;94326.19;4997400;28;7123;-64